You are not logged in, Click here to log in
上海浦東國際機場PVG / ZSPD 中國上海市浦東新區
ICAO: ZSPD Country: 中國上海市浦東新區
Latitude: 31.1443 Longitude: 121.808
Total Arrivals: 113 Total Departures: 108
Latest Arrival: SC941 (ZSAM-ZSPD)Arthur. Kung Latest Departure: FS9040 (ZSPD-RKSS)Arthur. Kung
Scenery:
METAR : ZSPD 110430Z 09005MPS 7000 -SHRA BKN005 OVC033 26/25 Q1005 NOSIG

上海浦東國際機場PVG